Ackerly, Texas
Current Conditions -  °F | °C
As of 12:35 PM on Sunday 23 Nov 2014 (Local Time) from KBPG Reporting Station
Clear Clear  
Wind Chill: 72°   Ceiling: Unl
Heat Index: 72°   Visibility: 10mi
Dew Point: 31°   Wind: 24mph
Humidity: 22%   Direction: 280°W
Pressure: 29.65"   Gusts: 35mph
Location:  32.53°N, 101.72°W
Report Text: KBPG 231835Z AUTO 28021G30KT 10SM CLR 22/M01 A2965 RMK AO2 T02201008
Loading
Personal Weather Stations






























Interactive Weather Map New forecast layout! Learn more

10-Day Weather Forecast

Advertisements
Track Severe Weather on mobile